Time;durP1;ratioP1;P1;durP2;ratioP2;P2;SDS_P1;SDS_P2;PMS_P1;PMS_P2;Temp;Humidity;BMP_temperature;BMP_pressure;BME280_temperature;BME280_humidity;BME280_pressure;Samples;Min_cycle;Max_cycle;Signal;HPM_P1;HPM_P2
2021/06/11 00:02:16;;;;;;;;;;;12.20;96.40;;;;;;5085336;28;19919;-74
2021/06/11 00:04:41;;;;;;;;;;;12.20;96.30;;;;;;5085686;28;19926;-71
2021/06/11 00:07:07;;;;;;;;;;;12.20;96.50;;;;;;5062291;28;19920;-72
2021/06/11 00:09:33;;;;;;;;;;;12.20;96.30;;;;;;5085589;28;19920;-73
2021/06/11 00:11:58;;;;;;;;;;;12.20;96.40;;;;;;5083819;28;19912;-73
2021/06/11 00:14:24;;;;;;;;;;;12.20;96.40;;;;;;5065568;28;19938;-72
2021/06/11 00:16:49;;;;;;;;;;;12.20;96.30;;;;;;5083746;28;20027;-72
2021/06/11 00:19:15;;;;;;;;;;;12.20;96.60;;;;;;5084985;28;20189;-72
2021/06/11 00:21:41;;;;;;;;;;;12.20;96.70;;;;;;5083624;28;19936;-72
2021/06/11 00:24:06;;;;;;;;;;;12.20;96.80;;;;;;5083769;28;19920;-72
2021/06/11 00:26:32;;;;;;;;;;;12.20;96.80;;;;;;5083549;28;19924;-72
2021/06/11 00:28:58;;;;;;;;;;;12.20;96.90;;;;;;5084445;28;19934;-73
2021/06/11 00:31:23;;;;;;;;;;;12.20;96.80;;;;;;5083607;28;19923;-72
2021/06/11 00:33:49;;;;;;;;;;;12.30;97.00;;;;;;5087307;28;19974;-72
2021/06/11 00:36:15;;;;;;;;;;;12.30;97.00;;;;;;5085443;28;20211;-72
2021/06/11 00:38:41;;;;;;;;;;;12.30;97.10;;;;;;5085578;28;20377;-72
2021/06/11 00:41:06;;;;;;;;;;;12.30;97.30;;;;;;5086909;28;19921;-73
2021/06/11 00:43:32;;;;;;;;;;;12.30;97.40;;;;;;5068016;28;19917;-72
2021/06/11 00:45:58;;;;;;;;;;;12.40;97.40;;;;;;5086932;28;19922;-71
2021/06/11 00:48:23;;;;;;;;;;;12.40;97.60;;;;;;5087003;28;20422;-71
2021/06/11 00:50:49;;;;;;;;;;;12.50;97.70;;;;;;5085364;28;19916;-72
2021/06/11 00:53:16;;;;;;;;;;;12.50;97.70;;;;;;5087118;28;20258;-72
2021/06/11 00:55:45;;;;;;;;;;;12.50;97.80;;;;;;5086447;28;19916;-71
2021/06/11 00:58:15;;;;;;;;;;;12.60;98.00;;;;;;5087615;28;19920;-72
2021/06/11 01:00:41;;;;;;;;;;;12.60;97.80;;;;;;5086503;28;19930;-72
2021/06/11 01:03:06;;;;;;;;;;;12.60;98.00;;;;;;5088017;28;20003;-72
2021/06/11 01:05:33;;;;;;;;;;;12.50;98.00;;;;;;5086621;28;19928;-73
2021/06/11 01:07:59;;;;;;;;;;;12.60;98.00;;;;;;5085544;28;19912;-72
2021/06/11 01:10:25;;;;;;;;;;;12.60;98.00;;;;;;5086226;28;19912;-72
2021/06/11 01:12:51;;;;;;;;;;;12.60;98.00;;;;;;5086616;28;20366;-72
2021/06/11 01:15:17;;;;;;;;;;;12.60;98.00;;;;;;5087716;28;19916;-72
2021/06/11 01:17:43;;;;;;;;;;;12.60;98.00;;;;;;5086211;28;20323;-72
2021/06/11 01:20:10;;;;;;;;;;;12.70;98.00;;;;;;5069396;28;19916;-72
2021/06/11 01:22:52;;;;;;;;;;;12.60;98.00;;;;;;5086161;28;19924;-71
2021/06/11 01:25:25;;;;;;;;;;;12.60;98.00;;;;;;5087517;28;19919;-70
2021/06/11 01:27:51;;;;;;;;;;;12.40;98.00;;;;;;5088100;28;19956;-71
2021/06/11 01:30:21;;;;;;;;;;;12.30;97.90;;;;;;5087932;28;19951;-71
2021/06/11 01:32:47;;;;;;;;;;;12.30;97.80;;;;;;5095599;28;19981;-72
2021/06/11 01:35:15;;;;;;;;;;;12.40;97.90;;;;;;5093769;28;19919;-72
2021/06/11 01:37:41;;;;;;;;;;;12.40;97.90;;;;;;5096057;28;19912;-71
2021/06/11 01:40:09;;;;;;;;;;;12.40;98.00;;;;;;5092809;28;19947;-72
2021/06/11 01:42:37;;;;;;;;;;;12.30;98.00;;;;;;5088778;28;19912;-72
2021/06/11 01:45:08;;;;;;;;;;;12.10;98.00;;;;;;5086797;28;19912;-72
2021/06/11 01:47:38;;;;;;;;;;;11.90;98.00;;;;;;5087712;28;19924;-72
2021/06/11 01:50:06;;;;;;;;;;;11.90;97.30;;;;;;5086789;28;19942;-71
2021/06/11 01:52:32;;;;;;;;;;;12.00;97.20;;;;;;5086498;28;19920;-71
2021/06/11 01:54:58;;;;;;;;;;;12.00;97.20;;;;;;5069839;28;20292;-72
2021/06/11 01:57:24;;;;;;;;;;;12.00;96.90;;;;;;5087480;28;20007;-72
2021/06/11 01:59:51;;;;;;;;;;;12.10;96.90;;;;;;5088103;28;19920;-72
2021/06/11 02:02:18;;;;;;;;;;;12.00;96.90;;;;;;5088411;28;19926;-72
2021/06/11 02:04:43;;;;;;;;;;;12.00;96.80;;;;;;5070045;28;19912;-72
2021/06/11 02:07:10;;;;;;;;;;;12.00;96.90;;;;;;5087436;28;19927;-72
2021/06/11 02:09:36;;;;;;;;;;;11.90;97.00;;;;;;5095431;28;19966;-72
2021/06/11 02:12:02;;;;;;;;;;;11.90;96.90;;;;;;5096284;28;19908;-72
2021/06/11 02:14:28;;;;;;;;;;;11.80;96.80;;;;;;5086391;28;19927;-72
2021/06/11 02:16:58;;;;;;;;;;;11.90;96.50;;;;;;5086380;28;19966;-72
2021/06/11 02:19:24;;;;;;;;;;;11.90;96.40;;;;;;5086796;28;19919;-72
2021/06/11 02:21:49;;;;;;;;;;;11.90;96.60;;;;;;5086636;28;19927;-72
2021/06/11 02:24:15;;;;;;;;;;;11.80;96.60;;;;;;5082378;28;19911;-72
2021/06/11 02:26:41;;;;;;;;;;;11.80;96.30;;;;;;5087592;28;20215;-72
2021/06/11 02:29:07;;;;;;;;;;;11.70;96.60;;;;;;5086398;28;20573;-72
2021/06/11 02:31:33;;;;;;;;;;;11.70;96.20;;;;;;5087989;28;19928;-72
2021/06/11 02:33:59;;;;;;;;;;;11.60;96.30;;;;;;5086399;28;19924;-72
2021/06/11 02:36:24;;;;;;;;;;;11.60;96.00;;;;;;5085542;28;19958;-72
2021/06/11 02:38:50;;;;;;;;;;;11.70;96.10;;;;;;5085822;28;19919;-72
2021/06/11 02:41:18;;;;;;;;;;;11.70;96.30;;;;;;5079193;28;20313;-72
2021/06/11 02:43:44;;;;;;;;;;;11.60;96.10;;;;;;5086545;28;19916;-72
2021/06/11 02:46:29;;;;;;;;;;;11.60;96.20;;;;;;5086694;28;19947;-72
2021/06/11 02:48:56;;;;;;;;;;;11.50;96.10;;;;;;5085725;28;19930;-72
2021/06/11 02:51:28;;;;;;;;;;;11.60;95.70;;;;;;5085515;28;20216;-72
2021/06/11 02:53:55;;;;;;;;;;;11.70;95.40;;;;;;5085717;28;20533;-72
2021/06/11 02:56:39;;;;;;;;;;;11.90;95.40;;;;;;5086232;28;19923;-72
2021/06/11 02:59:07;;;;;;;;;;;12.00;95.30;;;;;;5086690;28;20228;-73
2021/06/11 03:01:35;;;;;;;;;;;12.00;95.70;;;;;;5086144;28;20328;-73
2021/06/11 03:04:01;;;;;;;;;;;12.00;95.70;;;;;;5086292;28;19951;-73
2021/06/11 03:06:28;;;;;;;;;;;12.00;95.80;;;;;;5085169;28;19924;-72
2021/06/11 03:08:54;;;;;;;;;;;12.00;95.80;;;;;;5085845;28;19963;-72
2021/06/11 03:11:28;;;;;;;;;;;12.00;95.80;;;;;;5086240;28;19928;-72
2021/06/11 03:13:55;;;;;;;;;;;11.90;96.30;;;;;;5086499;28;19920;-72
2021/06/11 03:16:21;;;;;;;;;;;11.70;96.10;;;;;;5064950;28;20050;-72
2021/06/11 03:18:51;;;;;;;;;;;11.70;96.00;;;;;;5086227;28;19912;-71
2021/06/11 03:21:21;;;;;;;;;;;11.70;96.00;;;;;;5085739;28;19915;-73
2021/06/11 03:23:50;;;;;;;;;;;11.70;95.80;;;;;;5086524;28;20276;-73
2021/06/11 03:26:20;;;;;;;;;;;11.70;95.90;;;;;;5085464;28;19924;-73
2021/06/11 03:28:47;;;;;;;;;;;11.70;95.80;;;;;;5085111;28;19912;-73
2021/06/11 03:31:43;;;;;;;;;;;11.80;95.70;;;;;;5070175;28;19912;-73
2021/06/11 03:34:15;;;;;;;;;;;11.80;96.00;;;;;;5072625;28;20056;-73
2021/06/11 03:36:42;;;;;;;;;;;11.90;95.90;;;;;;5083986;28;19916;-72
2021/06/11 03:39:11;;;;;;;;;;;11.90;96.10;;;;;;5084127;28;19916;-72
2021/06/11 03:41:38;;;;;;;;;;;11.90;96.10;;;;;;5087505;28;19912;-72
2021/06/11 03:44:05;;;;;;;;;;;11.90;96.00;;;;;;5086900;28;20603;-73
2021/06/11 03:46:31;;;;;;;;;;;11.90;96.10;;;;;;5085918;28;19947;-72
2021/06/11 03:48:58;;;;;;;;;;;11.90;95.80;;;;;;5067437;28;19938;-73
2021/06/11 03:51:25;;;;;;;;;;;12.00;95.90;;;;;;5084148;28;19916;-73
2021/06/11 03:53:51;;;;;;;;;;;12.00;95.90;;;;;;5085684;28;20039;-73
2021/06/11 03:56:18;;;;;;;;;;;12.00;95.80;;;;;;5086220;28;19920;-72
2021/06/11 03:58:45;;;;;;;;;;;12.00;95.90;;;;;;5085924;28;19920;-72
2021/06/11 04:01:15;;;;;;;;;;;12.00;95.90;;;;;;5085417;28;19967;-73
2021/06/11 04:03:41;;;;;;;;;;;12.00;95.80;;;;;;5084614;28;19916;-72
2021/06/11 04:06:11;;;;;;;;;;;12.10;95.70;;;;;;5066766;28;21514;-72
2021/06/11 04:08:37;;;;;;;;;;;12.10;95.80;;;;;;5086953;28;19912;-72
2021/06/11 04:11:04;;;;;;;;;;;12.10;95.80;;;;;;5089064;28;19912;-72
2021/06/11 04:13:42;;;;;;;;;;;12.10;95.80;;;;;;5071930;28;19916;-72
2021/06/11 04:16:10;;;;;;;;;;;12.20;95.90;;;;;;5071752;28;19921;-72
2021/06/11 04:18:37;;;;;;;;;;;12.30;95.90;;;;;;5089486;28;19966;-72
2021/06/11 04:21:03;;;;;;;;;;;12.30;96.00;;;;;;5088981;28;20703;-72
2021/06/11 04:23:37;;;;;;;;;;;12.40;96.00;;;;;;5088509;28;20208;-72
2021/06/11 04:26:05;;;;;;;;;;;12.40;96.10;;;;;;5086019;28;20320;-72
2021/06/11 04:28:33;;;;;;;;;;;12.50;96.20;;;;;;5088987;28;19912;-72
2021/06/11 04:30:59;;;;;;;;;;;12.50;96.40;;;;;;5088090;28;20290;-73
2021/06/11 04:33:28;;;;;;;;;;;12.60;96.40;;;;;;5089805;28;19920;-72
2021/06/11 04:35:53;;;;;;;;;;;12.60;96.40;;;;;;5089303;28;19916;-72
2021/06/11 04:38:19;;;;;;;;;;;12.70;96.50;;;;;;5087320;28;20288;-72
2021/06/11 04:40:45;;;;;;;;;;;12.70;96.50;;;;;;5089786;28;19920;-72
2021/06/11 04:43:11;;;;;;;;;;;12.80;96.60;;;;;;5071983;28;19944;-72
2021/06/11 04:45:37;;;;;;;;;;;12.90;96.50;;;;;;5088981;28;19999;-73
2021/06/11 04:48:03;;;;;;;;;;;13.10;96.70;;;;;;5088816;28;20019;-73
2021/06/11 04:50:28;;;;;;;;;;;13.10;96.80;;;;;;5089226;28;19990;-72
2021/06/11 04:52:54;;;;;;;;;;;13.30;96.60;;;;;;5087017;28;19920;-73
2021/06/11 04:55:20;;;;;;;;;;;13.30;97.00;;;;;;5089697;28;20320;-72
2021/06/11 04:57:45;;;;;;;;;;;13.40;97.20;;;;;;5069781;28;19920;-73
2021/06/11 05:00:11;;;;;;;;;;;13.50;97.20;;;;;;5088724;28;19940;-73
2021/06/11 05:02:37;;;;;;;;;;;13.50;97.10;;;;;;5088280;28;19916;-72
2021/06/11 05:05:02;;;;;;;;;;;13.60;97.20;;;;;;5088123;28;19912;-72
2021/06/11 05:07:28;;;;;;;;;;;13.70;97.10;;;;;;5087822;28;19920;-73
2021/06/11 05:09:53;;;;;;;;;;;13.80;97.00;;;;;;5089308;28;19942;-73
2021/06/11 05:12:19;;;;;;;;;;;13.90;97.10;;;;;;5087244;28;19912;-72
2021/06/11 05:14:45;;;;;;;;;;;14.00;97.30;;;;;;5088345;28;20224;-73
2021/06/11 05:17:10;;;;;;;;;;;14.10;97.30;;;;;;5089568;28;20244;-73
2021/06/11 05:19:37;;;;;;;;;;;14.20;97.50;;;;;;5065614;28;21675;-72
2021/06/11 05:22:03;;;;;;;;;;;14.40;97.60;;;;;;5068532;28;19950;-72
2021/06/11 05:24:28;;;;;;;;;;;14.40;97.80;;;;;;5088698;28;19916;-72
2021/06/11 05:26:54;;;;;;;;;;;14.50;97.90;;;;;;5088414;28;19928;-72
2021/06/11 05:29:19;;;;;;;;;;;14.60;98.00;;;;;;5088371;28;20011;-72
2021/06/11 05:31:45;;;;;;;;;;;14.70;98.00;;;;;;5087889;28;19924;-72
2021/06/11 05:34:11;;;;;;;;;;;14.90;98.00;;;;;;5089176;28;19964;-72
2021/06/11 05:36:36;;;;;;;;;;;15.00;98.00;;;;;;5084983;28;20006;-72
2021/06/11 05:39:03;;;;;;;;;;;15.10;98.00;;;;;;5094127;28;19912;-73
2021/06/11 05:41:28;;;;;;;;;;;15.30;98.00;;;;;;5067746;28;19912;-72
2021/06/11 05:43:54;;;;;;;;;;;15.40;98.00;;;;;;5087982;28;19924;-72
2021/06/11 05:46:20;;;;;;;;;;;15.50;98.00;;;;;;5070937;28;19923;-72
2021/06/11 05:48:47;;;;;;;;;;;15.70;98.00;;;;;;5070258;28;20323;-72
2021/06/11 05:51:12;;;;;;;;;;;15.90;98.00;;;;;;5087137;28;19912;-73
2021/06/11 05:53:38;;;;;;;;;;;16.10;98.00;;;;;;5070456;28;19919;-73
2021/06/11 05:56:04;;;;;;;;;;;16.30;98.00;;;;;;5088825;28;19977;-72
2021/06/11 05:58:30;;;;;;;;;;;16.40;98.00;;;;;;5088490;28;19943;-73
2021/06/11 06:00:55;;;;;;;;;;;16.70;98.00;;;;;;5088973;28;19951;-73
2021/06/11 06:03:21;;;;;;;;;;;16.80;98.00;;;;;;5087436;28;20196;-73
2021/06/11 06:05:46;;;;;;;;;;;16.80;97.70;;;;;;5086003;28;20060;-73
2021/06/11 06:08:12;;;;;;;;;;;17.00;97.80;;;;;;5087551;28;20220;-72
2021/06/11 06:10:37;;;;;;;;;;;17.10;97.40;;;;;;5087593;28;19943;-73
2021/06/11 06:13:03;;;;;;;;;;;17.20;97.50;;;;;;5088575;28;20304;-73
2021/06/11 06:15:29;;;;;;;;;;;17.30;97.30;;;;;;5090067;28;19932;-74
2021/06/11 06:17:54;;;;;;;;;;;17.40;97.30;;;;;;5087396;28;19932;-74
2021/06/11 06:20:20;;;;;;;;;;;17.50;97.40;;;;;;5068665;28;19954;-74
2021/06/11 06:22:45;;;;;;;;;;;17.80;97.10;;;;;;5069813;28;21232;-74
2021/06/11 06:25:11;;;;;;;;;;;18.00;96.70;;;;;;5088530;28;19981;-73
2021/06/11 06:27:38;;;;;;;;;;;18.10;96.00;;;;;;5088483;28;20213;-73
2021/06/11 06:30:04;;;;;;;;;;;18.30;95.90;;;;;;5087837;28;19920;-73
2021/06/11 06:32:30;;;;;;;;;;;18.50;95.10;;;;;;5086972;28;19912;-73
2021/06/11 06:34:56;;;;;;;;;;;18.50;95.20;;;;;;5086793;28;20324;-73
2021/06/11 06:37:22;;;;;;;;;;;18.70;95.80;;;;;;5085945;28;19938;-73
2021/06/11 06:39:47;;;;;;;;;;;18.90;94.50;;;;;;5087253;28;19962;-73
2021/06/11 06:42:13;;;;;;;;;;;19.10;94.60;;;;;;5086520;28;20197;-73
2021/06/11 06:44:39;;;;;;;;;;;19.20;94.00;;;;;;5068797;28;19923;-73
2021/06/11 06:47:05;;;;;;;;;;;19.30;93.60;;;;;;5090383;28;19926;-73
2021/06/11 06:49:34;;;;;;;;;;;19.50;93.60;;;;;;5091329;28;19912;-73
2021/06/11 06:51:59;;;;;;;;;;;19.60;93.40;;;;;;5086179;28;20538;-73
2021/06/11 06:54:25;;;;;;;;;;;19.50;93.90;;;;;;5086783;28;20005;-73
2021/06/11 06:56:51;;;;;;;;;;;19.50;93.90;;;;;;5087198;28;20206;-73
2021/06/11 06:59:16;;;;;;;;;;;19.70;93.60;;;;;;5087461;28;19920;-73
2021/06/11 07:01:42;;;;;;;;;;;19.80;93.20;;;;;;5092722;28;20346;-73
2021/06/11 07:04:07;;;;;;;;;;;19.90;92.80;;;;;;5092162;28;19919;-73
2021/06/11 07:06:33;;;;;;;;;;;20.00;91.60;;;;;;5095225;28;20007;-73
2021/06/11 07:08:58;;;;;;;;;;;20.10;91.20;;;;;;5096473;28;19909;-73
2021/06/11 07:11:25;;;;;;;;;;;20.20;90.50;;;;;;5078368;28;19909;-73
2021/06/11 07:13:51;;;;;;;;;;;20.30;90.00;;;;;;5095915;28;19916;-73
2021/06/11 07:16:17;;;;;;;;;;;20.30;90.10;;;;;;5096056;28;20351;-72
2021/06/11 07:18:42;;;;;;;;;;;20.40;90.00;;;;;;5096047;28;19912;-73
2021/06/11 07:21:09;;;;;;;;;;;20.50;90.00;;;;;;5076909;28;19908;-73
2021/06/11 07:23:35;;;;;;;;;;;20.80;90.60;;;;;;5096163;28;19908;-73
2021/06/11 07:26:08;;;;;;;;;;;21.40;89.20;;;;;;5095931;28;20019;-73
2021/06/11 07:28:37;;;;;;;;;;;22.50;83.10;;;;;;5096152;28;20220;-73
2021/06/11 07:31:03;;;;;;;;;;;23.60;81.90;;;;;;5095697;28;19924;-73
2021/06/11 07:33:28;;;;;;;;;;;23.70;81.30;;;;;;5095651;28;19953;-73
2021/06/11 07:35:56;;;;;;;;;;;24.70;77.20;;;;;;5094818;28;19912;-73
2021/06/11 07:38:22;;;;;;;;;;;25.10;75.20;;;;;;5095325;28;19916;-73
2021/06/11 07:40:51;;;;;;;;;;;25.30;74.10;;;;;;5095714;28;19956;-73
2021/06/11 07:43:17;;;;;;;;;;;25.20;75.40;;;;;;5095304;28;19908;-73
2021/06/11 07:45:42;;;;;;;;;;;25.10;77.30;;;;;;5095798;28;20216;-73
2021/06/11 07:48:08;;;;;;;;;;;25.80;74.50;;;;;;5095514;28;19950;-73
2021/06/11 07:50:33;;;;;;;;;;;26.30;74.20;;;;;;5095529;28;19912;-72
2021/06/11 07:52:59;;;;;;;;;;;26.60;73.00;;;;;;5094943;28;19908;-72
2021/06/11 07:55:24;;;;;;;;;;;26.90;72.00;;;;;;5095718;28;19961;-72
2021/06/11 07:57:50;;;;;;;;;;;26.60;73.30;;;;;;5095573;28;19908;-73
2021/06/11 08:00:16;;;;;;;;;;;26.90;73.10;;;;;;5095449;28;19912;-72
2021/06/11 08:02:42;;;;;;;;;;;27.10;73.20;;;;;;5095162;28;19919;-72
2021/06/11 08:05:11;;;;;;;;;;;27.40;71.20;;;;;;5095179;28;19927;-72
2021/06/11 08:07:36;;;;;;;;;;;27.90;71.50;;;;;;5091601;28;20375;-72
2021/06/11 08:10:03;;;;;;;;;;;28.70;68.40;;;;;;5091961;28;19965;-72
2021/06/11 08:12:29;;;;;;;;;;;28.80;64.70;;;;;;5095050;28;19935;-72
2021/06/11 08:14:54;;;;;;;;;;;29.00;65.20;;;;;;5095228;28;19908;-72
2021/06/11 08:17:20;;;;;;;;;;;29.20;64.90;;;;;;5094950;28;19912;-72
2021/06/11 08:19:45;;;;;;;;;;;28.80;64.90;;;;;;5078530;28;19912;-72
2021/06/11 08:22:11;;;;;;;;;;;28.40;64.90;;;;;;5074114;28;20323;-72
2021/06/11 08:24:36;;;;;;;;;;;27.70;67.50;;;;;;5075427;28;19931;-72
2021/06/11 08:27:02;;;;;;;;;;;28.20;67.80;;;;;;5075002;28;19916;-72
2021/06/11 08:29:28;;;;;;;;;;;29.00;65.80;;;;;;5089162;28;19913;-72
2021/06/11 08:31:53;;;;;;;;;;;29.20;64.70;;;;;;5094909;28;19961;-72
2021/06/11 08:34:19;;;;;;;;;;;28.90;65.40;;;;;;5095450;28;19912;-72
2021/06/11 08:36:44;;;;;;;;;;;28.70;65.70;;;;;;5094049;28;19970;-72
2021/06/11 08:39:10;;;;;;;;;;;28.50;66.40;;;;;;5094949;28;19951;-72
2021/06/11 08:41:35;;;;;;;;;;;28.40;65.90;;;;;;5095286;28;19909;-72
2021/06/11 08:44:01;;;;;;;;;;;28.30;66.00;;;;;;5095242;28;19914;-72
2021/06/11 08:46:27;;;;;;;;;;;28.40;66.00;;;;;;5095030;28;20354;-72
2021/06/11 08:48:53;;;;;;;;;;;28.40;66.20;;;;;;5094848;28;20312;-72
2021/06/11 08:51:19;;;;;;;;;;;29.00;66.60;;;;;;5094056;28;19908;-73
2021/06/11 08:53:46;;;;;;;;;;;29.50;64.90;;;;;;5076063;28;20002;-72
2021/06/11 08:56:12;;;;;;;;;;;30.00;63.10;;;;;;5078518;28;20220;-73
2021/06/11 08:58:38;;;;;;;;;;;30.00;63.30;;;;;;5087220;28;19912;-72
2021/06/11 09:01:04;;;;;;;;;;;30.00;63.50;;;;;;5098363;28;19961;-72
2021/06/11 09:03:37;;;;;;;;;;;29.30;64.30;;;;;;5098548;28;20197;-72
2021/06/11 09:06:04;;;;;;;;;;;28.70;65.10;;;;;;5097460;28;19915;-73
2021/06/11 09:08:30;;;;;;;;;;;28.10;65.90;;;;;;5098611;28;19977;-72
2021/06/11 09:11:12;;;;;;;;;;;28.30;66.30;;;;;;5098299;28;20292;-74
2021/06/11 09:13:40;;;;;;;;;;;28.70;65.70;;;;;;5098358;28;20378;-75
2021/06/11 09:16:07;;;;;;;;;;;29.30;64.40;;;;;;5098166;28;19916;-73
2021/06/11 09:18:41;;;;;;;;;;;29.70;64.80;;;;;;5098468;28;19908;-74
2021/06/11 09:21:26;;;;;;;;;;;30.20;62.20;;;;;;5097149;28;19912;-73
2021/06/11 09:24:44;;;;;;;;;;;29.50;65.40;;;;;;5097834;28;19995;-73
2021/06/11 09:27:01;;;;;;;;;;;29.10;64.00;;;;;;5093875;28;19916;-73
2021/06/11 09:29:37;;;;;;;;;;;28.40;65.20;;;;;;5097921;28;19912;-73
2021/06/11 09:32:10;;;;;;;;;;;28.50;64.40;;;;;;5097127;28;19912;-73
2021/06/11 09:34:35;;;;;;;;;;;29.00;63.20;;;;;;5098038;28;19916;-73
2021/06/11 09:37:03;;;;;;;;;;;29.80;62.90;;;;;;5078691;28;20308;-73
2021/06/11 09:39:46;;;;;;;;;;;29.10;64.30;;;;;;5097355;28;19919;-73
2021/06/11 09:42:15;;;;;;;;;;;29.20;63.60;;;;;;5097958;28;19912;-73
2021/06/11 09:44:40;;;;;;;;;;;28.60;65.30;;;;;;5097955;28;19943;-72
2021/06/11 09:47:06;;;;;;;;;;;28.40;65.10;;;;;;5097566;28;19951;-73
2021/06/11 09:49:42;;;;;;;;;;;28.70;65.10;;;;;;5097778;28;19908;-73
2021/06/11 09:52:09;;;;;;;;;;;28.80;66.40;;;;;;5096167;28;19916;-73
2021/06/11 09:54:34;;;;;;;;;;;28.90;65.50;;;;;;5097825;28;19962;-73
2021/06/11 09:57:19;;;;;;;;;;;29.20;65.10;;;;;;5097506;28;19908;-73
2021/06/11 09:59:45;;;;;;;;;;;29.60;62.50;;;;;;5077345;28;19912;-73
2021/06/11 10:02:14;;;;;;;;;;;29.70;61.70;;;;;;5077534;28;19908;-73
2021/06/11 10:04:42;;;;;;;;;;;30.00;61.80;;;;;;5076845;28;20352;-73
2021/06/11 10:07:09;;;;;;;;;;;30.20;62.80;;;;;;5089830;28;19942;-73
2021/06/11 10:09:35;;;;;;;;;;;30.50;62.60;;;;;;5096955;28;19916;-73
2021/06/11 10:12:01;;;;;;;;;;;30.70;58.60;;;;;;5096242;28;19916;-73
2021/06/11 10:14:27;;;;;;;;;;;30.80;57.60;;;;;;5096956;28;19912;-73
2021/06/11 10:16:52;;;;;;;;;;;29.90;56.70;;;;;;5097004;28;19920;-73
2021/06/11 10:19:18;;;;;;;;;;;30.10;59.40;;;;;;5097181;28;19908;-72
2021/06/11 10:21:44;;;;;;;;;;;30.50;59.80;;;;;;5095830;28;19915;-72
2021/06/11 10:24:10;;;;;;;;;;;30.40;60.40;;;;;;5079034;28;19923;-73
2021/06/11 10:26:35;;;;;;;;;;;30.40;59.70;;;;;;5097049;28;20317;-73
2021/06/11 10:29:01;;;;;;;;;;;30.20;61.10;;;;;;5096960;28;19961;-74
2021/06/11 10:31:27;;;;;;;;;;;30.10;61.10;;;;;;5097019;28;19915;-73
2021/06/11 10:33:53;;;;;;;;;;;29.60;59.00;;;;;;5096839;28;19912;-74
2021/06/11 10:36:25;;;;;;;;;;;29.00;60.50;;;;;;5095244;28;20004;-73
2021/06/11 10:38:51;;;;;;;;;;;28.40;61.50;;;;;;5096530;28;19919;-73
2021/06/11 10:41:16;;;;;;;;;;;28.50;63.00;;;;;;5095892;28;19912;-72
2021/06/11 10:43:43;;;;;;;;;;;28.80;59.60;;;;;;5096591;28;19962;-73
2021/06/11 10:46:29;;;;;;;;;;;29.60;56.80;;;;;;5096595;28;19915;-73
2021/06/11 10:48:55;;;;;;;;;;;30.00;57.80;;;;;;5096553;28;19908;-73
2021/06/11 10:51:29;;;;;;;;;;;29.90;54.50;;;;;;5077291;28;19908;-73
2021/06/11 10:54:15;;;;;;;;;;;29.90;55.00;;;;;;5093288;28;19912;-73
2021/06/11 10:56:56;;;;;;;;;;;29.70;54.90;;;;;;5096429;28;20304;-73
2021/06/11 10:59:34;;;;;;;;;;;29.50;55.30;;;;;;5096404;28;19966;-73
2021/06/11 11:02:00;;;;;;;;;;;29.30;56.80;;;;;;5096272;28;20227;-73
2021/06/11 11:04:26;;;;;;;;;;;28.40;57.60;;;;;;5096408;28;19915;-72
2021/06/11 11:06:52;;;;;;;;;;;28.40;61.40;;;;;;5093624;28;19924;-72
2021/06/11 11:09:17;;;;;;;;;;;28.40;63.30;;;;;;5094705;28;19919;-72
2021/06/11 11:11:46;;;;;;;;;;;28.20;62.00;;;;;;5085821;28;19919;-72
2021/06/11 11:14:30;;;;;;;;;;;28.10;61.00;;;;;;5075977;28;20232;-72
2021/06/11 11:16:59;;;;;;;;;;;28.30;62.20;;;;;;5074974;28;19920;-73
2021/06/11 11:19:43;;;;;;;;;;;28.60;60.50;;;;;;5076302;28;19908;-72
2021/06/11 11:22:08;;;;;;;;;;;28.70;59.90;;;;;;5094977;28;20208;-72
2021/06/11 11:24:34;;;;;;;;;;;28.30;59.00;;;;;;5083076;28;19934;-73
2021/06/11 11:26:59;;;;;;;;;;;28.50;60.80;;;;;;5075620;28;19919;-73
2021/06/11 11:29:25;;;;;;;;;;;28.60;58.30;;;;;;5057765;28;19954;-73
2021/06/11 11:31:51;;;;;;;;;;;28.30;60.80;;;;;;5089183;28;19912;-73
2021/06/11 11:34:17;;;;;;;;;;;28.40;58.30;;;;;;5094368;28;20331;-72
2021/06/11 11:36:44;;;;;;;;;;;28.30;59.20;;;;;;5075134;28;19909;-73
2021/06/11 11:39:10;;;;;;;;;;;28.10;60.30;;;;;;5101916;28;20228;-74
2021/06/11 11:41:36;;;;;;;;;;;28.60;60.20;;;;;;5095149;28;19950;-73
2021/06/11 11:44:02;;;;;;;;;;;28.80;57.30;;;;;;5095453;28;19908;-73
2021/06/11 11:46:27;;;;;;;;;;;28.90;55.50;;;;;;5095707;28;19923;-73
2021/06/11 11:48:53;;;;;;;;;;;29.60;53.50;;;;;;5095867;28;19983;-72
2021/06/11 11:51:19;;;;;;;;;;;30.20;53.30;;;;;;5091742;28;20208;-73
2021/06/11 11:53:45;;;;;;;;;;;29.70;55.70;;;;;;5095479;28;19916;-73
2021/06/11 11:56:10;;;;;;;;;;;29.10;56.60;;;;;;5094316;28;19912;-74
2021/06/11 11:58:36;;;;;;;;;;;28.80;58.10;;;;;;5092082;28;19948;-74
2021/06/11 12:01:01;;;;;;;;;;;29.20;57.20;;;;;;5094530;28;19912;-73
2021/06/11 12:03:27;;;;;;;;;;;29.00;57.70;;;;;;5093069;28;20009;-73
2021/06/11 12:05:53;;;;;;;;;;;28.10;60.30;;;;;;5093118;28;20708;-74
2021/06/11 12:08:18;;;;;;;;;;;28.20;57.70;;;;;;5093844;28;19912;-73
2021/06/11 12:11:07;;;;;;;;;;;28.60;59.00;;;;;;5091294;28;19981;-71
2021/06/11 12:13:33;;;;;;;;;;;28.60;56.40;;;;;;5079198;28;19913;-72
2021/06/11 12:16:02;;;;;;;;;;;28.60;58.10;;;;;;5089222;28;19943;-71
2021/06/11 12:18:28;;;;;;;;;;;28.70;59.50;;;;;;5092170;28;19912;-73
2021/06/11 12:20:54;;;;;;;;;;;28.80;58.80;;;;;;5081471;28;19921;-72
2021/06/11 12:23:20;;;;;;;;;;;28.20;58.80;;;;;;5077893;28;19965;-72
2021/06/11 12:25:45;;;;;;;;;;;28.30;60.40;;;;;;5083458;28;19978;-73
2021/06/11 12:28:11;;;;;;;;;;;28.20;58.80;;;;;;5090656;28;19922;-72
2021/06/11 12:30:36;;;;;;;;;;;28.30;58.40;;;;;;5085432;28;20262;-73
2021/06/11 12:33:02;;;;;;;;;;;28.70;59.30;;;;;;5097083;28;20347;-72
2021/06/11 12:35:28;;;;;;;;;;;28.90;58.80;;;;;;5098821;28;20326;-72
2021/06/11 12:37:54;;;;;;;;;;;28.50;61.90;;;;;;5093235;28;19920;-72
2021/06/11 12:40:20;;;;;;;;;;;29.20;57.90;;;;;;5083188;28;20369;-72
2021/06/11 12:42:50;;;;;;;;;;;29.40;58.20;;;;;;5092557;28;20015;-72
2021/06/11 12:45:16;;;;;;;;;;;29.50;58.20;;;;;;5088807;28;19912;-72
2021/06/11 12:47:41;;;;;;;;;;;29.60;56.70;;;;;;5088534;28;19917;-72
2021/06/11 12:50:08;;;;;;;;;;;29.60;57.20;;;;;;5093363;28;19930;-72
2021/06/11 12:52:34;;;;;;;;;;;29.70;54.90;;;;;;5091625;28;19948;-73
2021/06/11 12:54:59;;;;;;;;;;;29.60;55.80;;;;;;5081852;28;20009;-72
2021/06/11 12:57:25;;;;;;;;;;;29.80;56.80;;;;;;5089582;28;20296;-72
2021/06/11 12:59:50;;;;;;;;;;;30.10;55.20;;;;;;5080109;28;20208;-73
2021/06/11 13:02:16;;;;;;;;;;;30.40;58.10;;;;;;5088423;28;19923;-73
2021/06/11 13:04:42;;;;;;;;;;;30.80;56.60;;;;;;5093465;28;20270;-74
2021/06/11 13:07:08;;;;;;;;;;;30.30;56.40;;;;;;5089331;28;19927;-73
2021/06/11 13:09:33;;;;;;;;;;;29.30;56.20;;;;;;5091191;28;19924;-73
2021/06/11 13:11:59;;;;;;;;;;;29.20;57.00;;;;;;5079959;28;19912;-72
2021/06/11 13:14:25;;;;;;;;;;;29.30;56.60;;;;;;5093811;28;19912;-73
2021/06/11 13:16:51;;;;;;;;;;;29.80;53.80;;;;;;5093055;28;20017;-73
2021/06/11 13:19:17;;;;;;;;;;;30.10;53.60;;;;;;5097315;28;19919;-72
2021/06/11 13:21:42;;;;;;;;;;;30.40;53.20;;;;;;5082943;28;20328;-72
2021/06/11 13:24:08;;;;;;;;;;;30.40;53.90;;;;;;5092007;28;19920;-72
2021/06/11 13:26:35;;;;;;;;;;;30.60;54.90;;;;;;5093659;28;19948;-72
2021/06/11 13:29:00;;;;;;;;;;;30.60;56.70;;;;;;5085604;28;20327;-72
2021/06/11 13:31:28;;;;;;;;;;;29.40;55.70;;;;;;5096421;28;19912;-72
2021/06/11 13:34:01;;;;;;;;;;;28.40;59.20;;;;;;5078819;28;19916;-72
2021/06/11 13:36:26;;;;;;;;;;;27.80;59.20;;;;;;5083814;28;19919;-73
2021/06/11 13:38:52;;;;;;;;;;;27.20;59.80;;;;;;5085226;28;19917;-72
2021/06/11 13:41:20;;;;;;;;;;;26.90;59.40;;;;;;5091536;28;19919;-73
2021/06/11 13:43:46;;;;;;;;;;;26.80;62.40;;;;;;5096225;28;19912;-72
2021/06/11 13:46:11;;;;;;;;;;;26.50;64.10;;;;;;5093487;28;19916;-72
2021/06/11 13:48:37;;;;;;;;;;;26.20;65.30;;;;;;5068380;28;20205;-72
2021/06/11 13:51:03;;;;;;;;;;;27.00;62.80;;;;;;5094245;28;19915;-72
2021/06/11 13:53:28;;;;;;;;;;;27.80;61.10;;;;;;5061803;28;20011;-72
2021/06/11 13:55:55;;;;;;;;;;;28.50;58.20;;;;;;5084727;28;19912;-72
2021/06/11 13:58:21;;;;;;;;;;;29.00;59.70;;;;;;5063363;28;19912;-72
2021/06/11 14:00:47;;;;;;;;;;;30.20;57.40;;;;;;5077442;28;20359;-72
2021/06/11 14:03:13;;;;;;;;;;;31.00;53.70;;;;;;5077228;28;19955;-71
2021/06/11 14:05:39;;;;;;;;;;;31.20;53.30;;;;;;5078126;28;19956;-72
2021/06/11 14:08:04;;;;;;;;;;;31.90;53.70;;;;;;5068805;28;19916;-72
2021/06/11 14:10:30;;;;;;;;;;;32.40;53.50;;;;;;5083252;28;19920;-72
2021/06/11 14:12:56;;;;;;;;;;;32.70;53.30;;;;;;5089288;28;19920;-72
2021/06/11 14:15:22;;;;;;;;;;;33.10;52.70;;;;;;5092796;28;19931;-71
2021/06/11 14:17:48;;;;;;;;;;;33.00;50.40;;;;;;5079751;28;19912;-72